sensor_id;sensor_type;location;lat;lon;timestamp;P1;durP1;ratioP1;P2;durP2;ratioP2
56810;SDS011;42691;47.234;27.494;2023-01-10T00:00:50;6.43;;;3.22;;
56810;SDS011;42691;47.234;27.494;2023-01-10T00:03:15;10.57;;;3.22;;
56810;SDS011;42691;47.234;27.494;2023-01-10T00:05:41;11.88;;;3.40;;
56810;SDS011;42691;47.234;27.494;2023-01-10T00:08:07;7.32;;;3.33;;
56810;SDS011;42691;47.234;27.494;2023-01-10T00:10:37;8.00;;;3.65;;
56810;SDS011;42691;47.234;27.494;2023-01-10T00:13:02;14.73;;;3.50;;
56810;SDS011;42691;47.234;27.494;2023-01-10T00:15:46;12.68;;;4.13;;
56810;SDS011;42691;47.234;27.494;2023-01-10T00:18:12;12.70;;;6.07;;
56810;SDS011;42691;47.234;27.494;2023-01-10T00:20:38;7.57;;;4.10;;
56810;SDS011;42691;47.234;27.494;2023-01-10T00:23:03;10.85;;;4.47;;
56810;SDS011;42691;47.234;27.494;2023-01-10T00:25:28;5.88;;;4.07;;
56810;SDS011;42691;47.234;27.494;2023-01-10T00:27:55;6.30;;;4.10;;
56810;SDS011;42691;47.234;27.494;2023-01-10T00:33:04;9.18;;;4.03;;
56810;SDS011;42691;47.234;27.494;2023-01-10T00:35:30;10.50;;;4.93;;
56810;SDS011;42691;47.234;27.494;2023-01-10T00:37:56;9.88;;;4.60;;
56810;SDS011;42691;47.234;27.494;2023-01-10T00:40:29;6.72;;;4.47;;
56810;SDS011;42691;47.234;27.494;2023-01-10T00:42:56;10.50;;;4.32;;
56810;SDS011;42691;47.234;27.494;2023-01-10T00:45:40;18.00;;;4.63;;
56810;SDS011;42691;47.234;27.494;2023-01-10T00:48:06;7.25;;;3.15;;
56810;SDS011;42691;47.234;27.494;2023-01-10T00:50:31;9.50;;;3.67;;
56810;SDS011;42691;47.234;27.494;2023-01-10T00:52:57;3.95;;;2.20;;
56810;SDS011;42691;47.234;27.494;2023-01-10T00:55:22;6.28;;;3.35;;
56810;SDS011;42691;47.234;27.494;2023-01-10T00:57:48;8.35;;;4.05;;
56810;SDS011;42691;47.234;27.494;2023-01-10T01:00:13;6.93;;;2.85;;
56810;SDS011;42691;47.234;27.494;2023-01-10T01:02:39;7.75;;;3.28;;
56810;SDS011;42691;47.234;27.494;2023-01-10T01:05:05;7.93;;;3.90;;
56810;SDS011;42691;47.234;27.494;2023-01-10T01:07:30;10.55;;;3.60;;
56810;SDS011;42691;47.234;27.494;2023-01-10T01:09:56;7.95;;;3.30;;
56810;SDS011;42691;47.234;27.494;2023-01-10T01:12:40;7.80;;;3.88;;
56810;SDS011;42691;47.234;27.494;2023-01-10T01:15:05;17.42;;;4.68;;
56810;SDS011;42691;47.234;27.494;2023-01-10T01:17:31;11.68;;;3.50;;
56810;SDS011;42691;47.234;27.494;2023-01-10T01:19:57;9.35;;;3.67;;
56810;SDS011;42691;47.234;27.494;2023-01-10T01:22:22;9.27;;;3.65;;
56810;SDS011;42691;47.234;27.494;2023-01-10T01:24:47;11.95;;;4.15;;
56810;SDS011;42691;47.234;27.494;2023-01-10T01:27:13;9.60;;;4.07;;
56810;SDS011;42691;47.234;27.494;2023-01-10T01:29:38;5.10;;;3.13;;
56810;SDS011;42691;47.234;27.494;2023-01-10T01:32:04;9.20;;;3.33;;
56810;SDS011;42691;47.234;27.494;2023-01-10T01:34:29;10.90;;;4.55;;
56810;SDS011;42691;47.234;27.494;2023-01-10T01:36:55;7.97;;;3.70;;
56810;SDS011;42691;47.234;27.494;2023-01-10T01:39:22;7.63;;;3.78;;
56810;SDS011;42691;47.234;27.494;2023-01-10T01:41:47;7.00;;;3.95;;
56810;SDS011;42691;47.234;27.494;2023-01-10T01:44:22;8.95;;;3.33;;
56810;SDS011;42691;47.234;27.494;2023-01-10T01:46:51;8.15;;;3.70;;
56810;SDS011;42691;47.234;27.494;2023-01-10T01:49:25;6.65;;;3.30;;
56810;SDS011;42691;47.234;27.494;2023-01-10T01:51:55;10.63;;;3.90;;
56810;SDS011;42691;47.234;27.494;2023-01-10T01:54:25;8.35;;;4.95;;
56810;SDS011;42691;47.234;27.494;2023-01-10T01:56:55;9.05;;;4.05;;
56810;SDS011;42691;47.234;27.494;2023-01-10T01:59:27;8.30;;;4.40;;
56810;SDS011;42691;47.234;27.494;2023-01-10T02:01:57;8.15;;;3.70;;
56810;SDS011;42691;47.234;27.494;2023-01-10T02:04:33;8.98;;;3.78;;
56810;SDS011;42691;47.234;27.494;2023-01-10T02:07:06;13.73;;;4.10;;
56810;SDS011;42691;47.234;27.494;2023-01-10T02:12:01;9.85;;;4.85;;
56810;SDS011;42691;47.234;27.494;2023-01-10T02:14:27;7.13;;;3.72;;
56810;SDS011;42691;47.234;27.494;2023-01-10T02:16:54;13.48;;;5.40;;
56810;SDS011;42691;47.234;27.494;2023-01-10T02:19:24;9.23;;;3.55;;
56810;SDS011;42691;47.234;27.494;2023-01-10T02:38:21;6.82;;;4.22;;
56810;SDS011;42691;47.234;27.494;2023-01-10T02:41:13;8.32;;;4.25;;
56810;SDS011;42691;47.234;27.494;2023-01-10T02:43:49;11.05;;;5.88;;
56810;SDS011;42691;47.234;27.494;2023-01-10T02:46:20;7.78;;;3.72;;
56810;SDS011;42691;47.234;27.494;2023-01-10T02:48:51;7.82;;;4.20;;
56810;SDS011;42691;47.234;27.494;2023-01-10T02:51:28;9.02;;;3.95;;
56810;SDS011;42691;47.234;27.494;2023-01-10T02:54:05;6.88;;;4.07;;
56810;SDS011;42691;47.234;27.494;2023-01-10T03:04:44;9.95;;;5.30;;
56810;SDS011;42691;47.234;27.494;2023-01-10T03:10:51;12.23;;;5.78;;
56810;SDS011;42691;47.234;27.494;2023-01-10T03:13:07;34.05;;;5.53;;
56810;SDS011;42691;47.234;27.494;2023-01-10T03:15:56;11.43;;;5.72;;
56810;SDS011;42691;47.234;27.494;2023-01-10T03:18:36;9.10;;;4.53;;
56810;SDS011;42691;47.234;27.494;2023-01-10T03:21:06;13.02;;;6.57;;
56810;SDS011;42691;47.234;27.494;2023-01-10T03:23:33;7.68;;;5.30;;
56810;SDS011;42691;47.234;27.494;2023-01-10T03:25:59;11.48;;;6.88;;
56810;SDS011;42691;47.234;27.494;2023-01-10T03:28:28;6.75;;;4.30;;
56810;SDS011;42691;47.234;27.494;2023-01-10T03:31:05;11.75;;;6.45;;
56810;SDS011;42691;47.234;27.494;2023-01-10T03:33:50;11.75;;;5.90;;
56810;SDS011;42691;47.234;27.494;2023-01-10T03:36:30;14.23;;;5.32;;
56810;SDS011;42691;47.234;27.494;2023-01-10T03:42:40;14.68;;;6.60;;
56810;SDS011;42691;47.234;27.494;2023-01-10T03:49:55;7.55;;;4.68;;
56810;SDS011;42691;47.234;27.494;2023-01-10T03:52:26;7.72;;;4.93;;
56810;SDS011;42691;47.234;27.494;2023-01-10T03:54:54;9.45;;;5.20;;
56810;SDS011;42691;47.234;27.494;2023-01-10T03:57:23;9.27;;;4.28;;
56810;SDS011;42691;47.234;27.494;2023-01-10T03:59:51;9.38;;;5.50;;
56810;SDS011;42691;47.234;27.494;2023-01-10T04:02:18;7.75;;;4.53;;
56810;SDS011;42691;47.234;27.494;2023-01-10T04:04:44;11.48;;;6.30;;
56810;SDS011;42691;47.234;27.494;2023-01-10T04:07:09;13.48;;;6.38;;
56810;SDS011;42691;47.234;27.494;2023-01-10T04:09:35;11.10;;;6.38;;
56810;SDS011;42691;47.234;27.494;2023-01-10T04:12:00;11.60;;;6.97;;
56810;SDS011;42691;47.234;27.494;2023-01-10T04:14:26;12.00;;;6.55;;
56810;SDS011;42691;47.234;27.494;2023-01-10T04:16:51;13.07;;;6.47;;
56810;SDS011;42691;47.234;27.494;2023-01-10T04:19:17;10.40;;;6.53;;
56810;SDS011;42691;47.234;27.494;2023-01-10T04:21:43;9.10;;;5.70;;
56810;SDS011;42691;47.234;27.494;2023-01-10T04:24:08;14.68;;;7.35;;
56810;SDS011;42691;47.234;27.494;2023-01-10T04:26:34;10.20;;;5.50;;
56810;SDS011;42691;47.234;27.494;2023-01-10T04:28:59;8.40;;;5.97;;
56810;SDS011;42691;47.234;27.494;2023-01-10T04:31:25;14.35;;;6.90;;
56810;SDS011;42691;47.234;27.494;2023-01-10T04:33:51;13.07;;;5.22;;
56810;SDS011;42691;47.234;27.494;2023-01-10T04:36:16;12.07;;;6.38;;
56810;SDS011;42691;47.234;27.494;2023-01-10T04:38:42;13.52;;;6.65;;
56810;SDS011;42691;47.234;27.494;2023-01-10T04:41:07;15.73;;;6.05;;
56810;SDS011;42691;47.234;27.494;2023-01-10T04:43:33;10.40;;;5.32;;
56810;SDS011;42691;47.234;27.494;2023-01-10T04:45:59;11.77;;;5.63;;
56810;SDS011;42691;47.234;27.494;2023-01-10T04:48:24;14.27;;;7.85;;
56810;SDS011;42691;47.234;27.494;2023-01-10T04:50:51;16.00;;;4.90;;
56810;SDS011;42691;47.234;27.494;2023-01-10T04:53:18;17.08;;;6.30;;
56810;SDS011;42691;47.234;27.494;2023-01-10T04:55:44;13.48;;;5.55;;
56810;SDS011;42691;47.234;27.494;2023-01-10T04:58:10;10.48;;;5.32;;
56810;SDS011;42691;47.234;27.494;2023-01-10T05:00:36;11.73;;;5.30;;
56810;SDS011;42691;47.234;27.494;2023-01-10T05:03:01;10.75;;;5.30;;
56810;SDS011;42691;47.234;27.494;2023-01-10T05:05:27;13.90;;;5.43;;
56810;SDS011;42691;47.234;27.494;2023-01-10T05:07:52;12.10;;;7.30;;
56810;SDS011;42691;47.234;27.494;2023-01-10T05:10:18;16.17;;;6.55;;
56810;SDS011;42691;47.234;27.494;2023-01-10T05:12:44;13.63;;;6.20;;
56810;SDS011;42691;47.234;27.494;2023-01-10T05:15:10;7.28;;;5.28;;
56810;SDS011;42691;47.234;27.494;2023-01-10T05:17:35;14.23;;;6.95;;
56810;SDS011;42691;47.234;27.494;2023-01-10T05:20:01;15.18;;;7.38;;
56810;SDS011;42691;47.234;27.494;2023-01-10T05:22:26;10.48;;;5.32;;
56810;SDS011;42691;47.234;27.494;2023-01-10T05:24:52;12.48;;;6.18;;
56810;SDS011;42691;47.234;27.494;2023-01-10T05:27:17;13.70;;;5.60;;
56810;SDS011;42691;47.234;27.494;2023-01-10T05:29:43;13.32;;;7.30;;
56810;SDS011;42691;47.234;27.494;2023-01-10T05:32:08;9.73;;;5.72;;
56810;SDS011;42691;47.234;27.494;2023-01-10T05:34:34;19.42;;;6.05;;
56810;SDS011;42691;47.234;27.494;2023-01-10T05:37:00;12.57;;;8.10;;
56810;SDS011;42691;47.234;27.494;2023-01-10T05:39:25;10.02;;;5.82;;
56810;SDS011;42691;47.234;27.494;2023-01-10T05:41:51;11.13;;;6.07;;
56810;SDS011;42691;47.234;27.494;2023-01-10T05:44:16;14.55;;;6.88;;
56810;SDS011;42691;47.234;27.494;2023-01-10T05:46:41;10.13;;;6.85;;
56810;SDS011;42691;47.234;27.494;2023-01-10T05:49:07;8.32;;;5.53;;
56810;SDS011;42691;47.234;27.494;2023-01-10T05:51:32;13.00;;;7.85;;
56810;SDS011;42691;47.234;27.494;2023-01-10T05:53:58;20.30;;;6.63;;
56810;SDS011;42691;47.234;27.494;2023-01-10T05:56:24;12.60;;;7.18;;
56810;SDS011;42691;47.234;27.494;2023-01-10T05:58:49;11.05;;;6.55;;
56810;SDS011;42691;47.234;27.494;2023-01-10T06:01:15;10.13;;;5.15;;
56810;SDS011;42691;47.234;27.494;2023-01-10T06:03:41;15.30;;;5.93;;
56810;SDS011;42691;47.234;27.494;2023-01-10T06:06:06;9.45;;;5.40;;
56810;SDS011;42691;47.234;27.494;2023-01-10T06:08:32;12.00;;;7.20;;
56810;SDS011;42691;47.234;27.494;2023-01-10T06:11:00;9.02;;;3.78;;
56810;SDS011;42691;47.234;27.494;2023-01-10T06:13:26;8.93;;;4.47;;
56810;SDS011;42691;47.234;27.494;2023-01-10T06:15:52;8.18;;;4.13;;
56810;SDS011;42691;47.234;27.494;2023-01-10T06:18:17;11.25;;;5.32;;
56810;SDS011;42691;47.234;27.494;2023-01-10T06:20:43;8.75;;;4.57;;
56810;SDS011;42691;47.234;27.494;2023-01-10T06:23:08;11.00;;;4.30;;
56810;SDS011;42691;47.234;27.494;2023-01-10T06:25:34;8.18;;;4.00;;
56810;SDS011;42691;47.234;27.494;2023-01-10T06:28:04;11.73;;;5.05;;
56810;SDS011;42691;47.234;27.494;2023-01-10T06:30:30;7.55;;;4.20;;
56810;SDS011;42691;47.234;27.494;2023-01-10T06:32:59;14.13;;;5.82;;
56810;SDS011;42691;47.234;27.494;2023-01-10T06:35:26;9.15;;;4.45;;
56810;SDS011;42691;47.234;27.494;2023-01-10T06:37:51;8.05;;;4.72;;
56810;SDS011;42691;47.234;27.494;2023-01-10T06:40:17;12.13;;;6.43;;
56810;SDS011;42691;47.234;27.494;2023-01-10T06:42:42;7.00;;;5.75;;
56810;SDS011;42691;47.234;27.494;2023-01-10T06:45:08;17.92;;;4.63;;
56810;SDS011;42691;47.234;27.494;2023-01-10T06:47:34;10.95;;;5.00;;
56810;SDS011;42691;47.234;27.494;2023-01-10T06:50:00;7.13;;;4.35;;
56810;SDS011;42691;47.234;27.494;2023-01-10T06:52:25;8.13;;;5.05;;
56810;SDS011;42691;47.234;27.494;2023-01-10T06:54:50;10.27;;;4.57;;
56810;SDS011;42691;47.234;27.494;2023-01-10T06:57:17;15.30;;;5.68;;
56810;SDS011;42691;47.234;27.494;2023-01-10T06:59:43;8.52;;;4.20;;
56810;SDS011;42691;47.234;27.494;2023-01-10T07:02:09;8.80;;;4.25;;
56810;SDS011;42691;47.234;27.494;2023-01-10T07:04:35;15.02;;;5.18;;
56810;SDS011;42691;47.234;27.494;2023-01-10T07:07:01;7.00;;;3.92;;
56810;SDS011;42691;47.234;27.494;2023-01-10T07:09:27;8.23;;;3.85;;
56810;SDS011;42691;47.234;27.494;2023-01-10T07:11:52;9.45;;;4.55;;
56810;SDS011;42691;47.234;27.494;2023-01-10T07:14:18;10.57;;;5.88;;
56810;SDS011;42691;47.234;27.494;2023-01-10T07:16:43;13.30;;;6.88;;
56810;SDS011;42691;47.234;27.494;2023-01-10T07:19:09;6.45;;;4.60;;
56810;SDS011;42691;47.234;27.494;2023-01-10T07:21:37;15.27;;;6.18;;
56810;SDS011;42691;47.234;27.494;2023-01-10T07:24:03;6.70;;;3.67;;
56810;SDS011;42691;47.234;27.494;2023-01-10T07:26:29;16.55;;;5.30;;
56810;SDS011;42691;47.234;27.494;2023-01-10T07:28:54;6.10;;;2.90;;
56810;SDS011;42691;47.234;27.494;2023-01-10T07:31:20;13.13;;;7.53;;
56810;SDS011;42691;47.234;27.494;2023-01-10T07:33:47;12.07;;;8.13;;
56810;SDS011;42691;47.234;27.494;2023-01-10T07:36:14;18.15;;;9.52;;
56810;SDS011;42691;47.234;27.494;2023-01-10T07:38:42;13.00;;;7.88;;
56810;SDS011;42691;47.234;27.494;2023-01-10T07:41:07;10.23;;;7.47;;
56810;SDS011;42691;47.234;27.494;2023-01-10T07:43:33;12.93;;;8.88;;
56810;SDS011;42691;47.234;27.494;2023-01-10T07:45:59;11.25;;;8.15;;
56810;SDS011;42691;47.234;27.494;2023-01-10T07:48:26;13.82;;;6.63;;
56810;SDS011;42691;47.234;27.494;2023-01-10T07:50:58;14.48;;;7.05;;
56810;SDS011;42691;47.234;27.494;2023-01-10T07:53:25;9.40;;;6.20;;
56810;SDS011;42691;47.234;27.494;2023-01-10T07:55:52;8.80;;;6.03;;
56810;SDS011;42691;47.234;27.494;2023-01-10T07:58:18;9.10;;;5.90;;
56810;SDS011;42691;47.234;27.494;2023-01-10T08:00:44;11.95;;;7.28;;
56810;SDS011;42691;47.234;27.494;2023-01-10T08:03:14;12.23;;;6.22;;
56810;SDS011;42691;47.234;27.494;2023-01-10T08:05:39;10.23;;;7.35;;
56810;SDS011;42691;47.234;27.494;2023-01-10T08:08:05;8.68;;;6.47;;
56810;SDS011;42691;47.234;27.494;2023-01-10T08:10:32;11.38;;;6.50;;
56810;SDS011;42691;47.234;27.494;2023-01-10T08:12:59;14.25;;;5.97;;
56810;SDS011;42691;47.234;27.494;2023-01-10T08:15:24;9.05;;;6.05;;
56810;SDS011;42691;47.234;27.494;2023-01-10T08:17:50;10.32;;;6.57;;
56810;SDS011;42691;47.234;27.494;2023-01-10T08:20:15;11.43;;;6.22;;
56810;SDS011;42691;47.234;27.494;2023-01-10T08:22:41;8.65;;;6.47;;
56810;SDS011;42691;47.234;27.494;2023-01-10T08:25:06;13.57;;;8.35;;
56810;SDS011;42691;47.234;27.494;2023-01-10T08:27:32;8.40;;;5.85;;
56810;SDS011;42691;47.234;27.494;2023-01-10T08:29:58;7.22;;;5.70;;
56810;SDS011;42691;47.234;27.494;2023-01-10T08:32:23;11.18;;;7.07;;
56810;SDS011;42691;47.234;27.494;2023-01-10T08:34:49;8.43;;;6.93;;
56810;SDS011;42691;47.234;27.494;2023-01-10T08:37:14;10.25;;;6.32;;
56810;SDS011;42691;47.234;27.494;2023-01-10T08:39:40;10.65;;;7.40;;
56810;SDS011;42691;47.234;27.494;2023-01-10T08:42:05;10.52;;;6.45;;
56810;SDS011;42691;47.234;27.494;2023-01-10T08:44:31;7.00;;;4.43;;
56810;SDS011;42691;47.234;27.494;2023-01-10T08:46:56;6.82;;;4.85;;
56810;SDS011;42691;47.234;27.494;2023-01-10T08:49:21;9.00;;;6.35;;
56810;SDS011;42691;47.234;27.494;2023-01-10T08:51:47;8.70;;;5.18;;
56810;SDS011;42691;47.234;27.494;2023-01-10T08:54:13;8.27;;;6.50;;
56810;SDS011;42691;47.234;27.494;2023-01-10T08:56:38;6.78;;;5.00;;
56810;SDS011;42691;47.234;27.494;2023-01-10T08:59:04;9.40;;;6.60;;
56810;SDS011;42691;47.234;27.494;2023-01-10T09:01:30;7.82;;;5.10;;
56810;SDS011;42691;47.234;27.494;2023-01-10T09:03:56;7.97;;;5.28;;
56810;SDS011;42691;47.234;27.494;2023-01-10T09:06:21;9.65;;;6.75;;
56810;SDS011;42691;47.234;27.494;2023-01-10T09:08:48;12.88;;;6.07;;
56810;SDS011;42691;47.234;27.494;2023-01-10T09:11:14;12.90;;;5.03;;
56810;SDS011;42691;47.234;27.494;2023-01-10T09:13:39;8.13;;;5.85;;
56810;SDS011;42691;47.234;27.494;2023-01-10T09:16:06;9.75;;;4.88;;
56810;SDS011;42691;47.234;27.494;2023-01-10T09:18:32;8.48;;;4.40;;
56810;SDS011;42691;47.234;27.494;2023-01-10T09:20:58;6.63;;;4.85;;
56810;SDS011;42691;47.234;27.494;2023-01-10T09:23:24;6.82;;;3.35;;
56810;SDS011;42691;47.234;27.494;2023-01-10T09:25:50;5.57;;;4.13;;
56810;SDS011;42691;47.234;27.494;2023-01-10T09:28:18;11.55;;;4.68;;
56810;SDS011;42691;47.234;27.494;2023-01-10T09:30:45;4.57;;;3.35;;
56810;SDS011;42691;47.234;27.494;2023-01-10T09:33:11;5.07;;;4.13;;
56810;SDS011;42691;47.234;27.494;2023-01-10T09:35:38;9.80;;;4.80;;
56810;SDS011;42691;47.234;27.494;2023-01-10T09:38:05;5.43;;;4.32;;
56810;SDS011;42691;47.234;27.494;2023-01-10T09:47:28;10.05;;;5.80;;
56810;SDS011;42691;47.234;27.494;2023-01-10T09:49:43;9.38;;;6.25;;
56810;SDS011;42691;47.234;27.494;2023-01-10T09:52:20;7.07;;;5.82;;
56810;SDS011;42691;47.234;27.494;2023-01-10T09:54:50;9.65;;;6.22;;
56810;SDS011;42691;47.234;27.494;2023-01-10T09:57:17;9.30;;;5.80;;
56810;SDS011;42691;47.234;27.494;2023-01-10T09:59:44;7.40;;;5.20;;
56810;SDS011;42691;47.234;27.494;2023-01-10T10:05:17;10.02;;;6.25;;
56810;SDS011;42691;47.234;27.494;2023-01-10T10:07:54;9.95;;;6.65;;
56810;SDS011;42691;47.234;27.494;2023-01-10T10:10:27;7.78;;;5.28;;
56810;SDS011;42691;47.234;27.494;2023-01-10T10:32:02;8.57;;;7.70;;
56810;SDS011;42691;47.234;27.494;2023-01-10T10:42:38;10.90;;;8.00;;
56810;SDS011;42691;47.234;27.494;2023-01-10T10:45:16;13.75;;;10.25;;
56810;SDS011;42691;47.234;27.494;2023-01-10T10:47:50;9.80;;;7.65;;
56810;SDS011;42691;47.234;27.494;2023-01-10T10:52:45;10.57;;;8.05;;
56810;SDS011;42691;47.234;27.494;2023-01-10T10:55:15;10.15;;;8.57;;
56810;SDS011;42691;47.234;27.494;2023-01-10T10:57:42;7.93;;;7.00;;
56810;SDS011;42691;47.234;27.494;2023-01-10T11:00:14;8.95;;;6.75;;
56810;SDS011;42691;47.234;27.494;2023-01-10T11:02:44;9.48;;;7.03;;
56810;SDS011;42691;47.234;27.494;2023-01-10T11:05:19;12.73;;;8.85;;
56810;SDS011;42691;47.234;27.494;2023-01-10T11:07:48;11.43;;;6.57;;
56810;SDS011;42691;47.234;27.494;2023-01-10T11:10:20;10.82;;;6.97;;
56810;SDS011;42691;47.234;27.494;2023-01-10T11:13:42;7.88;;;4.93;;
56810;SDS011;42691;47.234;27.494;2023-01-10T11:15:51;8.73;;;6.50;;
56810;SDS011;42691;47.234;27.494;2023-01-10T11:18:18;13.10;;;4.82;;
56810;SDS011;42691;47.234;27.494;2023-01-10T11:23:54;13.32;;;5.78;;
56810;SDS011;42691;47.234;27.494;2023-01-10T11:26:29;6.45;;;4.60;;
56810;SDS011;42691;47.234;27.494;2023-01-10T11:31:44;10.85;;;7.35;;
56810;SDS011;42691;47.234;27.494;2023-01-10T11:34:32;7.22;;;4.63;;
56810;SDS011;42691;47.234;27.494;2023-01-10T11:37:03;6.93;;;5.30;;
56810;SDS011;42691;47.234;27.494;2023-01-10T11:39:42;6.75;;;4.35;;
56810;SDS011;42691;47.234;27.494;2023-01-10T11:44:48;6.60;;;4.68;;
56810;SDS011;42691;47.234;27.494;2023-01-10T11:47:14;7.57;;;5.18;;
56810;SDS011;42691;47.234;27.494;2023-01-10T11:49:44;7.65;;;6.00;;
56810;SDS011;42691;47.234;27.494;2023-01-10T11:57:16;6.00;;;5.45;;
56810;SDS011;42691;47.234;27.494;2023-01-10T11:59:51;5.25;;;4.03;;
56810;SDS011;42691;47.234;27.494;2023-01-10T12:02:35;6.72;;;4.07;;
56810;SDS011;42691;47.234;27.494;2023-01-10T12:05:06;10.63;;;5.32;;
56810;SDS011;42691;47.234;27.494;2023-01-10T12:10:19;5.95;;;4.95;;
56810;SDS011;42691;47.234;27.494;2023-01-10T12:12:56;6.72;;;5.40;;
56810;SDS011;42691;47.234;27.494;2023-01-10T12:15:28;6.43;;;4.75;;
56810;SDS011;42691;47.234;27.494;2023-01-10T12:17:58;7.88;;;4.65;;
56810;SDS011;42691;47.234;27.494;2023-01-10T12:20:34;8.00;;;4.72;;
56810;SDS011;42691;47.234;27.494;2023-01-10T12:23:09;6.82;;;4.40;;
56810;SDS011;42691;47.234;27.494;2023-01-10T12:25:41;8.85;;;4.72;;
56810;SDS011;42691;47.234;27.494;2023-01-10T12:28:17;6.93;;;5.18;;
56810;SDS011;42691;47.234;27.494;2023-01-10T12:30:47;8.45;;;5.35;;
56810;SDS011;42691;47.234;27.494;2023-01-10T12:33:24;4.28;;;3.47;;
56810;SDS011;42691;47.234;27.494;2023-01-10T12:36:01;6.30;;;4.38;;
56810;SDS011;42691;47.234;27.494;2023-01-10T12:41:42;5.90;;;4.30;;
56810;SDS011;42691;47.234;27.494;2023-01-10T12:44:38;5.35;;;3.78;;
56810;SDS011;42691;47.234;27.494;2023-01-10T12:47:10;4.20;;;3.80;;
56810;SDS011;42691;47.234;27.494;2023-01-10T12:49:43;9.23;;;6.10;;
56810;SDS011;42691;47.234;27.494;2023-01-10T12:52:17;5.18;;;3.85;;
56810;SDS011;42691;47.234;27.494;2023-01-10T12:54:51;5.13;;;3.75;;
56810;SDS011;42691;47.234;27.494;2023-01-10T12:57:50;5.03;;;3.67;;
56810;SDS011;42691;47.234;27.494;2023-01-10T13:00:58;9.02;;;3.63;;
56810;SDS011;42691;47.234;27.494;2023-01-10T13:03:05;7.72;;;5.28;;
56810;SDS011;42691;47.234;27.494;2023-01-10T13:05:36;7.60;;;4.43;;
56810;SDS011;42691;47.234;27.494;2023-01-10T13:08:03;6.43;;;5.65;;
56810;SDS011;42691;47.234;27.494;2023-01-10T13:10:37;7.15;;;5.57;;
56810;SDS011;42691;47.234;27.494;2023-01-10T13:13:15;7.55;;;4.43;;
56810;SDS011;42691;47.234;27.494;2023-01-10T13:15:52;13.48;;;6.43;;
56810;SDS011;42691;47.234;27.494;2023-01-10T13:18:27;9.43;;;5.85;;
56810;SDS011;42691;47.234;27.494;2023-01-10T13:21:01;6.85;;;5.80;;
56810;SDS011;42691;47.234;27.494;2023-01-10T13:23:33;6.88;;;5.65;;
56810;SDS011;42691;47.234;27.494;2023-01-10T13:26:04;10.93;;;6.90;;
56810;SDS011;42691;47.234;27.494;2023-01-10T13:28:33;7.28;;;6.38;;
56810;SDS011;42691;47.234;27.494;2023-01-10T13:31:02;7.10;;;6.10;;
56810;SDS011;42691;47.234;27.494;2023-01-10T13:33:32;8.68;;;5.90;;
56810;SDS011;42691;47.234;27.494;2023-01-10T13:36:08;10.50;;;6.73;;
56810;SDS011;42691;47.234;27.494;2023-01-10T13:38:49;5.63;;;4.68;;
56810;SDS011;42691;47.234;27.494;2023-01-10T13:41:23;8.38;;;6.22;;
56810;SDS011;42691;47.234;27.494;2023-01-10T13:46:35;10.82;;;7.15;;
56810;SDS011;42691;47.234;27.494;2023-01-10T13:51:37;6.50;;;5.28;;
56810;SDS011;42691;47.234;27.494;2023-01-10T13:54:11;9.02;;;7.03;;
56810;SDS011;42691;47.234;27.494;2023-01-10T13:56:49;13.93;;;8.25;;
56810;SDS011;42691;47.234;27.494;2023-01-10T14:02:20;11.63;;;9.95;;
56810;SDS011;42691;47.234;27.494;2023-01-10T14:07:48;9.77;;;8.77;;
56810;SDS011;42691;47.234;27.494;2023-01-10T14:10:21;8.05;;;7.22;;
56810;SDS011;42691;47.234;27.494;2023-01-10T14:15:37;10.88;;;5.70;;
56810;SDS011;42691;47.234;27.494;2023-01-10T14:18:21;9.80;;;6.63;;
56810;SDS011;42691;47.234;27.494;2023-01-10T14:23:24;20.67;;;7.75;;
56810;SDS011;42691;47.234;27.494;2023-01-10T14:25:56;10.80;;;7.80;;
56810;SDS011;42691;47.234;27.494;2023-01-10T14:28:24;33.40;;;9.75;;
56810;SDS011;42691;47.234;27.494;2023-01-10T14:33:24;9.25;;;8.23;;
56810;SDS011;42691;47.234;27.494;2023-01-10T14:35:52;12.00;;;7.63;;
56810;SDS011;42691;47.234;27.494;2023-01-10T14:38:23;10.43;;;7.47;;
56810;SDS011;42691;47.234;27.494;2023-01-10T14:40:54;14.07;;;6.82;;
56810;SDS011;42691;47.234;27.494;2023-01-10T14:43:26;10.07;;;6.97;;
56810;SDS011;42691;47.234;27.494;2023-01-10T14:46:02;9.70;;;6.95;;
56810;SDS011;42691;47.234;27.494;2023-01-10T14:48:39;9.70;;;6.00;;
56810;SDS011;42691;47.234;27.494;2023-01-10T14:51:29;10.88;;;7.32;;
56810;SDS011;42691;47.234;27.494;2023-01-10T14:54:03;11.40;;;6.85;;
56810;SDS011;42691;47.234;27.494;2023-01-10T15:01:50;7.80;;;6.40;;
56810;SDS011;42691;47.234;27.494;2023-01-10T15:04:18;6.03;;;4.60;;
56810;SDS011;42691;47.234;27.494;2023-01-10T15:06:49;9.50;;;5.55;;
56810;SDS011;42691;47.234;27.494;2023-01-10T15:09:27;10.73;;;5.75;;
56810;SDS011;42691;47.234;27.494;2023-01-10T15:11:55;16.80;;;7.82;;
56810;SDS011;42691;47.234;27.494;2023-01-10T15:14:23;7.35;;;5.68;;
56810;SDS011;42691;47.234;27.494;2023-01-10T15:16:51;15.88;;;7.00;;
56810;SDS011;42691;47.234;27.494;2023-01-10T15:19:21;9.43;;;5.93;;
56810;SDS011;42691;47.234;27.494;2023-01-10T15:21:48;10.25;;;7.40;;
56810;SDS011;42691;47.234;27.494;2023-01-10T15:27:05;9.27;;;6.55;;
56810;SDS011;42691;47.234;27.494;2023-01-10T15:29:38;8.73;;;6.05;;
56810;SDS011;42691;47.234;27.494;2023-01-10T15:32:17;7.63;;;6.53;;
56810;SDS011;42691;47.234;27.494;2023-01-10T15:34:58;12.75;;;7.53;;
56810;SDS011;42691;47.234;27.494;2023-01-10T15:37:29;8.77;;;6.45;;
56810;SDS011;42691;47.234;27.494;2023-01-10T15:40:01;14.27;;;8.15;;
56810;SDS011;42691;47.234;27.494;2023-01-10T15:42:28;13.70;;;6.13;;
56810;SDS011;42691;47.234;27.494;2023-01-10T15:44:55;11.23;;;6.57;;
56810;SDS011;42691;47.234;27.494;2023-01-10T15:50:21;10.55;;;7.18;;
56810;SDS011;42691;47.234;27.494;2023-01-10T15:52:56;10.52;;;6.90;;
56810;SDS011;42691;47.234;27.494;2023-01-10T15:55:36;8.30;;;5.80;;
56810;SDS011;42691;47.234;27.494;2023-01-10T16:00:54;8.18;;;5.35;;
56810;SDS011;42691;47.234;27.494;2023-01-10T16:05:52;6.63;;;4.78;;
56810;SDS011;42691;47.234;27.494;2023-01-10T16:08:24;6.45;;;5.60;;
56810;SDS011;42691;47.234;27.494;2023-01-10T16:10:56;7.68;;;5.35;;
56810;SDS011;42691;47.234;27.494;2023-01-10T16:13:22;8.52;;;6.07;;
56810;SDS011;42691;47.234;27.494;2023-01-10T16:15:51;11.98;;;4.93;;
56810;SDS011;42691;47.234;27.494;2023-01-10T16:18:17;5.55;;;4.63;;
56810;SDS011;42691;47.234;27.494;2023-01-10T16:20:42;6.10;;;5.35;;
56810;SDS011;42691;47.234;27.494;2023-01-10T16:23:18;6.40;;;4.28;;
56810;SDS011;42691;47.234;27.494;2023-01-10T16:25:46;7.32;;;4.35;;
56810;SDS011;42691;47.234;27.494;2023-01-10T16:28:15;6.25;;;4.75;;
56810;SDS011;42691;47.234;27.494;2023-01-10T16:30:42;7.80;;;5.68;;
56810;SDS011;42691;47.234;27.494;2023-01-10T16:33:12;8.35;;;5.90;;
56810;SDS011;42691;47.234;27.494;2023-01-10T16:35:52;8.73;;;4.75;;
56810;SDS011;42691;47.234;27.494;2023-01-10T16:38:19;17.40;;;6.55;;
56810;SDS011;42691;47.234;27.494;2023-01-10T16:40:47;6.43;;;5.30;;
56810;SDS011;42691;47.234;27.494;2023-01-10T16:43:13;7.85;;;5.50;;
56810;SDS011;42691;47.234;27.494;2023-01-10T16:45:50;11.20;;;6.32;;
56810;SDS011;42691;47.234;27.494;2023-01-10T16:48:24;11.55;;;5.68;;
56810;SDS011;42691;47.234;27.494;2023-01-10T16:50:53;8.73;;;6.13;;
56810;SDS011;42691;47.234;27.494;2023-01-10T16:53:19;7.75;;;6.57;;
56810;SDS011;42691;47.234;27.494;2023-01-10T16:55:51;10.20;;;7.90;;